Time;durP1;ratioP1;P1;durP2;ratioP2;P2;SDS_P1;SDS_P2;PMS_P1;PMS_P2;Temp;Humidity;BMP_temperature;BMP_pressure;BME280_temperature;BME280_humidity;BME280_pressure;Samples;Min_cycle;Max_cycle;Signal;HPM_P1;HPM_P2
2022/01/17 00:01:53;;;;;;;25.87;21.23;;;;;;;2.29;100.00;101929.22;5021949;28;20189;-47
2022/01/17 00:04:18;;;;;;;24.43;20.67;;;;;;;2.31;100.00;101946.31;5026664;28;20225;-47
2022/01/17 00:06:44;;;;;;;24.60;20.53;;;;;;;2.32;100.00;101948.97;5025636;28;20277;-46
2022/01/17 00:09:10;;;;;;;26.20;21.10;;;;;;;2.34;100.00;101949.94;5025912;28;20203;-46
2022/01/17 00:11:42;;;;;;;24.10;21.10;;;;;;;2.35;100.00;101949.09;5024457;28;20706;-46
2022/01/17 00:14:12;;;;;;;27.90;22.30;;;;;;;2.37;100.00;101941.53;5017586;28;20192;-47
2022/01/17 00:16:45;;;;;;;28.07;23.27;;;;;;;2.36;100.00;101955.97;5028721;28;20191;-47
2022/01/17 00:21:48;;;;;;;24.60;20.30;;;;;;;2.38;100.00;101963.72;5029633;28;20191;-47
2022/01/17 00:24:13;;;;;;;23.03;19.10;;;;;;;2.39;100.00;101948.47;5029174;28;20186;-47
2022/01/17 00:26:39;;;;;;;24.20;20.13;;;;;;;2.41;100.00;101951.13;5028212;28;20581;-46
2022/01/17 00:29:04;;;;;;;23.57;19.30;;;;;;;2.41;100.00;101953.69;5027664;28;20206;-46
2022/01/17 00:31:30;;;;;;;26.97;21.87;;;;;;;2.41;100.00;101949.44;5028185;28;20222;-46
2022/01/17 00:33:55;;;;;;;24.60;20.07;;;;;;;2.40;100.00;101951.91;5027063;28;20190;-46
2022/01/17 00:36:20;;;;;;;29.97;22.40;;;;;;;2.42;100.00;101960.53;5031264;28;20187;-46
2022/01/17 00:38:46;;;;;;;27.47;23.23;;;;;;;2.42;100.00;101969.06;5026230;28;20578;-46
2022/01/17 00:41:11;;;;;;;33.10;24.33;;;;;;;2.44;100.00;101954.69;5028102;28;20214;-46
2022/01/17 00:43:36;;;;;;;37.40;28.67;;;;;;;2.44;100.00;101946.16;5030406;28;20233;-46
2022/01/17 00:46:02;;;;;;;35.60;27.97;;;;;;;2.41;100.00;101963.91;5028875;28;20183;-46
2022/01/17 00:48:27;;;;;;;32.07;26.03;;;;;;;2.38;100.00;101974.81;5022394;28;20685;-48
2022/01/17 00:50:53;;;;;;;32.87;25.63;;;;;;;2.38;100.00;101969.72;5030245;28;20191;-46
2022/01/17 00:53:18;;;;;;;37.23;29.17;;;;;;;2.39;100.00;101963.81;5025066;28;20226;-46
2022/01/17 00:55:44;;;;;;;37.13;29.20;;;;;;;2.36;100.00;101966.19;5026009;28;20797;-46
2022/01/17 00:58:09;;;;;;;33.63;26.33;;;;;;;2.33;100.00;101973.72;5024020;28;20319;-46
2022/01/17 01:00:36;;;;;;;33.03;27.30;;;;;;;2.32;100.00;101973.63;5020298;28;20192;-46
2022/01/17 01:03:02;;;;;;;32.13;25.90;;;;;;;2.29;100.00;101964.13;5024967;28;20237;-46
2022/01/17 01:05:30;;;;;;;32.07;26.33;;;;;;;2.29;100.00;101970.09;5015615;28;20196;-46
2022/01/17 01:07:55;;;;;;;34.67;27.07;;;;;;;2.30;100.00;101953.13;5032092;28;20698;-46
2022/01/17 01:10:21;;;;;;;33.67;26.37;;;;;;;2.29;100.00;101953.91;5028271;28;20192;-46
2022/01/17 01:12:48;;;;;;;36.47;27.47;;;;;;;2.29;100.00;101970.09;5028240;28;20180;-46
2022/01/17 01:15:20;;;;;;;33.57;25.67;;;;;;;2.31;100.00;101951.44;5029142;28;20647;-47
2022/01/17 01:17:50;;;;;;;31.97;25.10;;;;;;;2.31;100.00;101957.44;5024218;28;20196;-47
2022/01/17 01:28:13;;;;;;;34.10;26.70;;;;;;;2.32;100.00;101951.53;5027066;28;20635;-45
2022/01/17 01:30:43;;;;;;;33.20;26.53;;;;;;;2.32;100.00;101956.63;5019093;28;20192;-45
2022/01/17 01:33:08;;;;;;;32.67;26.03;;;;;;;2.30;100.00;101960.78;5024861;28;20179;-46
2022/01/17 01:35:43;;;;;;;34.13;26.77;;;;;;;2.31;100.00;101971.88;5022008;28;20191;-46
2022/01/17 01:38:08;;;;;;;30.43;24.47;;;;;;;2.27;100.00;101971.69;5025823;28;20193;-46
2022/01/17 01:40:34;;;;;;;30.63;24.87;;;;;;;2.26;100.00;101979.28;5031258;28;20245;-46
2022/01/17 01:43:00;;;;;;;28.67;24.37;;;;;;;2.25;100.00;101970.78;5024903;28;20321;-46
2022/01/17 01:45:27;;;;;;;26.97;22.63;;;;;;;2.24;100.00;101973.22;5030681;28;20631;-46
2022/01/17 01:47:52;;;;;;;29.17;23.43;;;;;;;2.23;100.00;101953.59;5021707;28;20265;-47
2022/01/17 01:50:19;;;;;;;30.33;25.17;;;;;;;2.26;100.00;101948.63;5028648;28;20191;-47
2022/01/17 01:52:44;;;;;;;30.97;24.20;;;;;;;2.25;100.00;101960.53;5028070;28;20537;-46
2022/01/17 01:55:12;;;;;;;29.77;23.70;;;;;;;2.26;100.00;101948.63;5028531;28;20249;-47
2022/01/17 01:57:39;;;;;;;31.90;23.90;;;;;;;2.27;100.00;101955.50;5031180;28;20180;-47
2022/01/17 02:00:06;;;;;;;31.53;24.93;;;;;;;2.25;100.00;101960.53;5030153;28;20215;-47
2022/01/17 02:02:32;;;;;;;30.67;24.07;;;;;;;2.24;100.00;101963.00;5026622;28;20187;-47
2022/01/17 02:04:57;;;;;;;29.70;23.90;;;;;;;2.22;100.00;101957.81;5028955;28;20607;-47
2022/01/17 02:07:23;;;;;;;31.10;24.90;;;;;;;2.20;100.00;101950.84;5028742;28;20215;-47
2022/01/17 02:09:49;;;;;;;28.13;22.43;;;;;;;2.18;100.00;101955.91;5024654;28;20581;-47
2022/01/17 02:12:20;;;;;;;30.60;24.53;;;;;;;2.21;100.00;101944.94;5029448;28;20338;-47
2022/01/17 02:14:46;;;;;;;29.00;23.80;;;;;;;2.20;100.00;101944.09;5024448;28;20366;-47
2022/01/17 02:17:11;;;;;;;30.30;24.10;;;;;;;2.20;100.00;101943.19;5026894;28;20182;-47
2022/01/17 02:19:44;;;;;;;31.03;24.77;;;;;;;2.19;100.00;101937.22;5028530;28;20217;-47
2022/01/17 02:22:10;;;;;;;30.33;24.97;;;;;;;2.18;100.00;101935.47;5026263;28;20279;-47
2022/01/17 02:24:35;;;;;;;29.70;23.13;;;;;;;2.16;100.00;101941.31;5028367;28;20263;-47
2022/01/17 02:27:00;;;;;;;31.00;24.67;;;;;;;2.14;100.00;101941.22;5030887;28;20235;-47
2022/01/17 02:29:26;;;;;;;28.70;23.87;;;;;;;2.16;100.00;101946.41;5027361;28;20199;-47
2022/01/17 02:31:51;;;;;;;30.40;23.70;;;;;;;2.14;100.00;101943.75;5020425;28;20211;-44
2022/01/17 02:34:17;;;;;;;30.63;24.00;;;;;;;2.13;100.00;101949.66;5022385;28;20530;-47
2022/01/17 02:36:43;;;;;;;28.43;22.87;;;;;;;2.13;100.00;101952.22;5024097;28;20616;-47
2022/01/17 02:39:09;;;;;;;30.53;23.93;;;;;;;2.12;100.00;101955.56;5021760;28;20203;-47
2022/01/17 02:41:38;;;;;;;29.67;23.00;;;;;;;2.12;100.00;101964.13;5019449;28;20571;-46
2022/01/17 02:44:04;;;;;;;26.87;20.87;;;;;;;2.13;100.00;101959.88;5035096;28;20188;-46
2022/01/17 02:46:29;;;;;;;28.53;22.40;;;;;;;2.15;100.00;101958.28;5028496;28;20190;-46
2022/01/17 02:48:57;;;;;;;31.40;23.13;;;;;;;2.13;100.00;101955.66;5021971;28;20220;-46
2022/01/17 02:51:23;;;;;;;28.90;22.50;;;;;;;2.15;100.00;101962.53;5023018;28;20192;-46
2022/01/17 02:53:49;;;;;;;27.40;22.60;;;;;;;2.15;100.00;101965.09;5026633;28;20187;-47
2022/01/17 02:56:15;;;;;;;27.30;22.67;;;;;;;2.13;100.00;101962.44;5021375;28;20191;-46
2022/01/17 02:58:42;;;;;;;27.33;21.43;;;;;;;2.15;100.00;101970.19;5029236;28;20200;-46
2022/01/17 03:01:12;;;;;;;27.63;21.63;;;;;;;2.15;100.00;101967.66;5025795;28;20183;-46
2022/01/17 03:03:40;;;;;;;27.67;21.10;;;;;;;2.13;100.00;101971.00;5025125;28;20198;-46
2022/01/17 03:06:06;;;;;;;23.83;19.80;;;;;;;2.16;100.00;101980.47;5025059;28;20183;-47
2022/01/17 03:08:35;;;;;;;27.50;22.20;;;;;;;2.17;100.00;101977.13;5026951;28;20219;-47
2022/01/17 03:11:05;;;;;;;26.73;22.17;;;;;;;2.18;100.00;101975.47;5025709;28;20195;-45
2022/01/17 03:13:33;;;;;;;30.70;24.63;;;;;;;2.19;100.00;101967.88;5023311;28;20187;-46
2022/01/17 03:16:05;;;;;;;29.67;23.27;;;;;;;2.18;100.00;101966.13;5018245;28;20192;-48
2022/01/17 03:18:36;;;;;;;27.93;23.30;;;;;;;2.18;100.00;101960.16;5022702;28;20290;-47
2022/01/17 03:21:03;;;;;;;30.43;24.07;;;;;;;2.18;100.00;101955.03;5025476;28;20191;-47
2022/01/17 03:23:28;;;;;;;27.50;22.30;;;;;;;2.15;100.00;101960.84;5028206;28;20194;-47
2022/01/17 03:25:54;;;;;;;27.20;21.80;;;;;;;2.13;100.00;101957.31;5024660;28;20538;-47
2022/01/17 03:28:19;;;;;;;29.00;23.33;;;;;;;2.13;100.00;101952.22;5024928;28;20238;-45
2022/01/17 03:30:45;;;;;;;26.00;21.83;;;;;;;2.12;100.00;101947.91;5026575;28;20577;-45
2022/01/17 03:33:13;;;;;;;28.63;22.70;;;;;;;2.12;100.00;101942.78;5019619;28;20198;-46
2022/01/17 03:35:40;;;;;;;26.67;22.43;;;;;;;2.12;100.00;101941.13;5020867;28;20187;-46
2022/01/17 03:38:07;;;;;;;29.00;23.23;;;;;;;2.10;100.00;101940.19;5019927;28;20198;-45
2022/01/17 03:40:33;;;;;;;30.43;24.67;;;;;;;2.10;100.00;101942.72;5021760;28;20191;-47
2022/01/17 03:42:59;;;;;;;29.77;23.17;;;;;;;2.07;100.00;101957.88;5025343;28;20187;-46
2022/01/17 03:45:24;;;;;;;28.37;23.07;;;;;;;2.08;100.00;101969.88;5024206;28;20191;-46
2022/01/17 03:47:51;;;;;;;29.77;24.10;;;;;;;2.07;100.00;101972.34;5025370;28;20215;-46
2022/01/17 03:50:19;;;;;;;26.43;22.13;;;;;;;2.07;100.00;101980.00;5021146;28;20260;-45
2022/01/17 03:52:45;;;;;;;29.30;22.80;;;;;;;2.09;100.00;101980.97;5024713;28;20183;-48
2022/01/17 03:55:14;;;;;;;25.93;20.57;;;;;;;2.10;100.00;101980.19;5024477;28;20548;-48
2022/01/17 03:57:41;;;;;;;28.43;22.43;;;;;;;2.10;100.00;101983.59;5020186;28;20191;-45
2022/01/17 04:00:08;;;;;;;29.47;22.77;;;;;;;2.13;100.00;101977.75;5025377;28;20231;-47
2022/01/17 04:02:34;;;;;;;27.87;23.47;;;;;;;2.11;100.00;101980.25;5024895;28;20190;-47
2022/01/17 04:05:02;;;;;;;28.70;23.60;;;;;;;2.12;100.00;101981.09;5027012;28;20187;-47
2022/01/17 04:07:27;;;;;;;29.23;22.43;;;;;;;2.10;100.00;101996.38;5024911;28;20242;-47
2022/01/17 04:09:52;;;;;;;25.77;21.73;;;;;;;2.11;100.00;101994.72;5026104;28;20207;-47
2022/01/17 04:12:18;;;;;;;26.13;21.67;;;;;;;2.13;100.00;101991.44;5022806;28;20223;-46
2022/01/17 04:14:43;;;;;;;26.77;20.73;;;;;;;2.14;100.00;101992.28;5026182;28;20183;-46
2022/01/17 04:17:08;;;;;;;30.70;23.63;;;;;;;2.16;100.00;101987.28;5024167;28;20184;-45
2022/01/17 04:19:34;;;;;;;27.67;22.07;;;;;;;2.16;100.00;101975.38;5024201;28;20219;-46
2022/01/17 04:22:00;;;;;;;27.73;23.43;;;;;;;2.15;100.00;101965.94;5022851;28;20609;-46
2022/01/17 04:24:25;;;;;;;29.20;23.63;;;;;;;2.13;100.00;101960.78;5024173;28;20215;-46
2022/01/17 04:26:51;;;;;;;27.80;22.20;;;;;;;2.13;100.00;101957.31;5025762;28;20691;-46
2022/01/17 04:29:17;;;;;;;27.17;21.23;;;;;;;2.12;100.00;101961.56;5021393;28;20234;-46
2022/01/17 04:31:42;;;;;;;26.27;21.83;;;;;;;2.11;100.00;101954.69;5028453;28;20195;-46
2022/01/17 04:34:07;;;;;;;29.07;23.60;;;;;;;2.11;100.00;101961.50;5027196;28;20238;-45
2022/01/17 04:36:33;;;;;;;26.70;21.20;;;;;;;2.10;100.00;101958.06;5024935;28;20586;-46
2022/01/17 04:38:58;;;;;;;26.17;20.80;;;;;;;2.11;100.00;101969.16;5023710;28;20216;-45
2022/01/17 04:41:35;;;;;;;28.80;22.97;;;;;;;2.11;100.00;101958.94;5024125;28;20577;-45
2022/01/17 04:45:07;;;;;;;26.00;21.40;;;;;;;2.10;100.00;101963.16;5024272;28;20277;-45
2022/01/17 04:46:46;;;;;;;30.27;23.80;;;;;;;2.12;100.00;101965.78;5023344;28;20195;-46
2022/01/17 04:49:11;;;;;;;28.47;22.67;;;;;;;2.11;100.00;101974.28;5026738;28;20222;-46
2022/01/17 04:51:38;;;;;;;28.80;22.87;;;;;;;2.11;100.00;101969.16;5018977;28;20856;-48
2022/01/17 04:54:39;;;;;;;29.40;23.43;;;;;;;2.10;100.00;101967.41;5022548;28;20188;-45
2022/01/17 04:56:48;;;;;;;26.53;22.57;;;;;;;2.08;100.00;101967.31;5025787;28;20553;-47
2022/01/17 04:59:14;;;;;;;27.03;23.00;;;;;;;2.09;100.00;101965.66;5023165;28;20212;-46
2022/01/17 05:01:39;;;;;;;29.73;23.33;;;;;;;2.09;100.00;101961.41;5026992;28;20657;-46
2022/01/17 05:04:04;;;;;;;32.43;25.37;;;;;;;2.10;100.00;101958.06;5025819;28;20268;-48
2022/01/17 05:06:30;;;;;;;27.63;22.87;;;;;;;2.09;100.00;101969.06;5031036;28;20187;-47
2022/01/17 05:08:55;;;;;;;28.23;23.33;;;;;;;2.09;100.00;101968.19;5027169;28;20294;-45
2022/01/17 05:11:24;;;;;;;29.53;22.40;;;;;;;2.08;100.00;101964.75;5020648;28;20204;-47
2022/01/17 05:13:50;;;;;;;26.20;21.93;;;;;;;2.09;100.00;101968.19;5028027;28;20222;-46
2022/01/17 05:16:17;;;;;;;28.20;21.90;;;;;;;2.11;100.00;101974.28;5024802;28;20553;-46
2022/01/17 05:21:07;;;;;;;28.87;22.50;;;;;;;2.13;100.00;101978.66;5025763;28;20210;-45
2022/01/17 05:23:33;;;;;;;30.27;23.63;;;;;;;2.14;100.00;101976.97;5028827;28;20191;-47
2022/01/17 05:25:58;;;;;;;29.83;23.23;;;;;;;2.15;100.00;101976.16;5027449;28;20737;-46
2022/01/17 05:28:25;;;;;;;26.97;22.17;;;;;;;2.16;100.00;101980.47;5022131;28;20595;-46
2022/01/17 05:30:51;;;;;;;28.90;23.40;;;;;;;2.17;100.00;101989.03;5027325;28;20191;-45
2022/01/17 05:33:16;;;;;;;30.50;24.87;;;;;;;2.16;100.00;101983.03;5027486;28;20191;-46
2022/01/17 05:35:41;;;;;;;28.43;22.80;;;;;;;2.15;100.00;101996.59;5026779;28;20203;-45
2022/01/17 05:38:07;;;;;;;30.30;24.00;;;;;;;2.15;100.00;102003.41;5023007;28;20235;-49
2022/01/17 05:40:32;;;;;;;25.93;21.53;;;;;;;2.15;100.00;101999.16;5027576;28;20287;-46
2022/01/17 05:42:57;;;;;;;28.20;22.33;;;;;;;2.16;100.00;102006.03;5026853;28;20218;-46
2022/01/17 05:45:23;;;;;;;26.03;22.97;;;;;;;2.16;100.00;102000.91;5028673;28;20639;-46
2022/01/17 05:47:48;;;;;;;26.27;21.20;;;;;;;2.18;100.00;102001.00;5023448;28;20414;-46
2022/01/17 05:50:18;;;;;;;29.23;23.27;;;;;;;2.19;100.00;101995.13;5023019;28;20651;-46
2022/01/17 05:52:44;;;;;;;31.17;23.33;;;;;;;2.20;100.00;101981.50;5023597;28;20266;-46
2022/01/17 05:55:12;;;;;;;27.73;22.50;;;;;;;2.21;100.00;101981.63;5026347;28;20801;-46
2022/01/17 05:57:38;;;;;;;26.33;22.13;;;;;;;2.21;100.00;101973.94;5024916;28;20253;-46
2022/01/17 06:00:05;;;;;;;27.77;22.13;;;;;;;2.21;100.00;101967.94;5018992;28;20242;-46
2022/01/17 06:02:31;;;;;;;28.27;22.30;;;;;;;2.21;100.00;101975.59;5020968;28;20193;-46
2022/01/17 06:04:56;;;;;;;30.47;24.43;;;;;;;2.22;100.00;101969.69;5019693;28;20201;-46
2022/01/17 06:07:21;;;;;;;32.53;24.60;;;;;;;2.24;100.00;101966.44;5022704;28;20211;-46
2022/01/17 06:09:47;;;;;;;31.17;24.27;;;;;;;2.22;100.00;101955.28;5017926;28;20202;-46
2022/01/17 06:12:12;;;;;;;27.60;22.77;;;;;;;2.21;100.00;101966.28;5023759;28;20182;-46
2022/01/17 06:14:39;;;;;;;28.93;23.70;;;;;;;2.21;100.00;101973.06;5032614;28;20261;-45
2022/01/17 06:17:04;;;;;;;29.77;24.03;;;;;;;2.20;100.00;101982.41;5027655;28;20186;-45
2022/01/17 06:19:30;;;;;;;29.33;23.23;;;;;;;2.20;100.00;101984.97;5018764;28;20761;-46
2022/01/17 06:21:56;;;;;;;28.57;22.47;;;;;;;2.21;100.00;101994.38;5023905;28;20198;-46
2022/01/17 06:24:23;;;;;;;28.43;22.40;;;;;;;2.21;100.00;101996.03;5025895;28;20187;-46
2022/01/17 06:26:49;;;;;;;27.93;22.03;;;;;;;2.22;100.00;101997.81;5020122;28;20187;-46
2022/01/17 06:29:14;;;;;;;29.43;23.47;;;;;;;2.24;100.00;102001.31;5023054;28;20204;-46
2022/01/17 06:31:41;;;;;;;27.17;21.90;;;;;;;2.25;100.00;102015.84;5026182;28;20259;-46
2022/01/17 06:34:06;;;;;;;25.47;20.93;;;;;;;2.26;100.00;102020.16;5022349;28;20516;-46
2022/01/17 06:36:32;;;;;;;28.87;22.93;;;;;;;2.26;100.00;102020.16;5022543;28;20187;-47
2022/01/17 06:38:58;;;;;;;26.80;21.70;;;;;;;2.25;100.00;102029.53;5023943;28;20206;-46
2022/01/17 06:41:23;;;;;;;26.80;21.20;;;;;;;2.27;100.00;102045.78;5023472;28;20590;-45
2022/01/17 06:43:49;;;;;;;27.30;21.03;;;;;;;2.27;100.00;102034.69;5025726;28;20279;-46
2022/01/17 06:46:15;;;;;;;27.00;21.00;;;;;;;2.31;100.00;102043.41;5027157;28;20193;-46
2022/01/17 06:48:42;;;;;;;29.50;23.17;;;;;;;2.32;100.00;102038.41;5030993;28;20270;-48
2022/01/17 06:51:08;;;;;;;28.93;22.60;;;;;;;2.33;100.00;102022.25;5023379;28;20198;-46
2022/01/17 06:53:33;;;;;;;30.27;24.87;;;;;;;2.35;100.00;102028.31;5026949;28;20187;-46
2022/01/17 06:56:00;;;;;;;33.77;25.60;;;;;;;2.31;100.00;102036.63;5023707;28;20277;-47
2022/01/17 06:58:27;;;;;;;32.30;25.57;;;;;;;2.32;100.00;102046.06;5018108;28;20208;-48
2022/01/17 07:00:52;;;;;;;30.33;23.87;;;;;;;2.30;100.00;102062.97;5016474;28;20232;-47
2022/01/17 07:03:18;;;;;;;32.33;25.47;;;;;;;2.29;100.00;102064.63;5010029;28;20567;-46
2022/01/17 07:05:43;;;;;;;30.43;25.03;;;;;;;2.27;100.00;102053.44;5030079;28;20199;-46
2022/01/17 07:08:09;;;;;;;28.37;23.53;;;;;;;2.27;100.00;102065.34;5027379;28;20215;-47
2022/01/17 07:10:34;;;;;;;27.07;23.00;;;;;;;2.27;100.00;102070.47;5027722;28;20682;-46
2022/01/17 07:12:59;;;;;;;32.93;24.80;;;;;;;2.28;100.00;102085.00;5029457;28;20194;-47
2022/01/17 07:15:25;;;;;;;33.03;25.53;;;;;;;2.28;100.00;102090.97;5029381;28;20609;-46
2022/01/17 07:17:51;;;;;;;29.43;24.03;;;;;;;2.26;100.00;102086.59;5029412;28;20205;-46
2022/01/17 07:20:17;;;;;;;31.03;24.53;;;;;;;2.26;100.00;102091.69;5028984;28;20647;-46
2022/01/17 07:22:42;;;;;;;30.60;24.10;;;;;;;2.24;100.00;102083.97;5032125;28;20707;-46
2022/01/17 07:25:08;;;;;;;30.57;25.57;;;;;;;2.22;100.00;102087.22;5018323;28;20535;-45
2022/01/17 07:27:35;;;;;;;28.60;24.03;;;;;;;2.21;100.00;102118.66;5023213;28;20207;-46
2022/01/17 07:30:01;;;;;;;32.73;24.77;;;;;;;2.20;100.00;102117.78;5026593;28;20187;-46
2022/01/17 07:32:26;;;;;;;30.17;24.30;;;;;;;2.20;100.00;102109.25;5015341;28;20202;-46
2022/01/17 07:34:52;;;;;;;31.57;25.57;;;;;;;2.18;100.00;102092.97;5028625;28;20227;-46
2022/01/17 07:37:18;;;;;;;31.23;25.17;;;;;;;2.16;100.00;102071.56;5028358;28;20210;-46
2022/01/17 07:39:44;;;;;;;32.83;26.23;;;;;;;2.17;100.00;102083.56;5029850;28;20238;-46
2022/01/17 07:42:10;;;;;;;30.47;24.07;;;;;;;2.12;100.00;102063.75;5024291;28;20195;-46
2022/01/17 07:44:36;;;;;;;31.37;25.93;;;;;;;2.15;100.00;102062.16;5022093;28;20597;-46
2022/01/17 07:47:04;;;;;;;33.47;27.47;;;;;;;2.12;100.00;102067.94;5021003;28;20213;-46
2022/01/17 07:49:30;;;;;;;32.67;26.30;;;;;;;2.11;100.00;102087.53;5022109;28;20782;-46
2022/01/17 07:52:03;;;;;;;33.13;26.27;;;;;;;2.13;100.00;102102.91;5029819;28;20266;-46
2022/01/17 07:54:37;;;;;;;31.30;24.93;;;;;;;2.14;100.00;102097.00;5029840;28;20237;-46
2022/01/17 07:57:03;;;;;;;33.53;26.40;;;;;;;2.17;100.00;102104.00;5022026;28;20695;-46
2022/01/17 07:59:28;;;;;;;29.70;24.23;;;;;;;2.16;100.00;102102.22;5028051;28;20239;-46
2022/01/17 08:01:55;;;;;;;30.73;23.63;;;;;;;2.17;100.00;102104.84;5025025;28;20229;-46
2022/01/17 08:04:20;;;;;;;32.33;24.67;;;;;;;2.21;100.00;102101.69;5029019;28;20283;-46
2022/01/17 08:06:46;;;;;;;33.77;27.10;;;;;;;2.25;100.00;102100.16;5029734;28;20663;-46
2022/01/17 08:09:21;;;;;;;31.50;25.13;;;;;;;2.29;100.00;102108.06;5031176;28;20287;-46
2022/01/17 08:11:49;;;;;;;34.83;26.10;;;;;;;2.31;100.00;102113.28;5028188;28;20182;-46
2022/01/17 08:14:15;;;;;;;31.27;24.47;;;;;;;2.35;100.00;102117.75;5029236;28;20245;-46
2022/01/17 08:16:40;;;;;;;30.97;24.63;;;;;;;2.35;100.00;102127.09;5028016;28;20192;-46
2022/01/17 08:19:06;;;;;;;33.00;25.30;;;;;;;2.37;100.00;102134.03;5029075;28;20522;-46
2022/01/17 08:21:31;;;;;;;32.60;25.17;;;;;;;2.40;100.00;102133.34;5027160;28;20179;-45
2022/01/17 08:23:58;;;;;;;29.47;24.27;;;;;;;2.42;100.00;102142.84;5020667;28;20627;-47
2022/01/17 08:26:23;;;;;;;29.83;23.43;;;;;;;2.44;100.00;102133.59;5028701;28;20202;-47
2022/01/17 08:28:49;;;;;;;30.30;23.93;;;;;;;2.47;100.00;102127.75;5029068;28;20694;-45
2022/01/17 08:31:14;;;;;;;30.97;25.10;;;;;;;2.52;100.00;102133.09;5028524;28;20266;-47
2022/01/17 08:33:40;;;;;;;38.93;29.57;;;;;;;2.56;100.00;102130.81;5027202;28;20570;-46
2022/01/17 08:36:07;;;;;;;38.07;29.70;;;;;;;2.58;100.00;102139.44;5019315;28;20238;-46
2022/01/17 08:38:33;;;;;;;30.60;25.67;;;;;;;2.64;100.00;102131.22;5023238;28;20207;-46
2022/01/17 08:40:59;;;;;;;33.87;26.40;;;;;;;2.65;100.00;102124.44;5022717;28;20187;-45
2022/01/17 08:43:25;;;;;;;31.57;25.20;;;;;;;2.71;100.00;102112.84;5022456;28;20184;-45
2022/01/17 08:45:51;;;;;;;31.23;25.60;;;;;;;2.78;100.00;102105.50;5024141;28;20187;-46
2022/01/17 08:48:16;;;;;;;29.37;24.70;;;;;;;2.85;100.00;102087.13;5031244;28;20212;-48
2022/01/17 08:50:43;;;;;;;30.50;25.63;;;;;;;2.87;100.00;102088.94;5024203;28;20190;-47
2022/01/17 08:53:10;;;;;;;31.93;25.00;;;;;;;2.88;100.00;102080.47;5028129;28;20183;-45
2022/01/17 08:55:37;;;;;;;28.07;23.13;;;;;;;2.90;100.00;102107.00;5030326;28;20183;-45
2022/01/17 08:58:03;;;;;;;28.50;22.70;;;;;;;2.93;100.00;102108.88;5029216;28;20195;-45
2022/01/17 09:00:31;;;;;;;27.47;22.90;;;;;;;2.94;100.00;102099.50;5031803;28;20666;-45
2022/01/17 09:02:57;;;;;;;26.97;22.83;;;;;;;2.97;100.00;102108.22;5031345;28;20180;-47
2022/01/17 09:05:22;;;;;;;26.23;22.50;;;;;;;3.01;100.00;102110.13;5031861;28;20190;-47
2022/01/17 09:07:48;;;;;;;28.73;23.37;;;;;;;3.04;100.00;102124.75;5031725;28;20214;-47
2022/01/17 09:10:13;;;;;;;26.90;21.63;;;;;;;3.04;100.00;102133.31;5031386;28;20278;-47
2022/01/17 09:12:38;;;;;;;27.27;21.80;;;;;;;3.07;100.00;102149.63;5017511;28;20189;-45
2022/01/17 09:15:04;;;;;;;26.03;21.47;;;;;;;3.12;100.00;102159.28;5020170;28;20189;-48
2022/01/17 09:17:30;;;;;;;27.90;22.20;;;;;;;3.16;100.00;102158.66;5029903;28;20667;-48
2022/01/17 09:19:55;;;;;;;27.17;21.70;;;;;;;3.20;100.00;102154.56;5035328;28;20190;-47
2022/01/17 09:22:20;;;;;;;25.97;22.13;;;;;;;3.22;100.00;102152.09;5036314;28;20195;-47
2022/01/17 09:24:46;;;;;;;27.47;21.87;;;;;;;3.23;100.00;102133.38;5030688;28;20180;-48
2022/01/17 09:27:15;;;;;;;29.27;23.57;;;;;;;3.25;100.00;102139.44;5027715;28;20208;-47
2022/01/17 09:29:40;;;;;;;26.27;21.23;;;;;;;3.30;100.00;102138.88;5031270;28;20270;-47
2022/01/17 09:32:07;;;;;;;30.10;23.50;;;;;;;3.40;100.00;102139.38;5029648;28;20337;-45
2022/01/17 09:34:33;;;;;;;27.93;22.97;;;;;;;3.51;100.00;102145.88;5012637;28;20182;-47
2022/01/17 09:36:58;;;;;;;26.87;21.30;;;;;;;3.58;100.00;102153.06;5029240;28;20274;-46
2022/01/17 09:39:24;;;;;;;25.57;22.13;;;;;;;3.63;100.00;102156.75;5029994;28;20208;-46
2022/01/17 09:41:52;;;;;;;28.47;23.00;;;;;;;3.65;100.00;102161.91;5029449;28;20558;-46
2022/01/17 09:44:17;;;;;;;25.53;22.37;;;;;;;3.63;100.00;102156.75;5016336;28;20179;-45
2022/01/17 09:46:47;;;;;;;26.67;21.77;;;;;;;3.65;100.00;102165.38;5026890;28;20184;-46
2022/01/17 09:49:26;;;;;;;24.83;21.13;;;;;;;3.70;100.00;102178.41;5022892;28;20207;-46
2022/01/17 09:52:05;;;;;;;25.73;20.90;;;;;;;3.74;100.00;102176.88;5020327;28;20246;-46
2022/01/17 09:54:36;;;;;;;23.60;20.17;;;;;;;3.77;100.00;102180.47;5031786;28;20214;-46
2022/01/17 09:57:06;;;;;;;24.13;20.70;;;;;;;3.77;100.00;102188.16;5031141;28;20230;-46
2022/01/17 09:59:33;;;;;;;25.30;20.63;;;;;;;3.80;100.00;102187.44;5030227;28;20565;-48
2022/01/17 10:01:59;;;;;;;23.77;20.33;;;;;;;3.79;100.00;102177.97;5031707;28;20183;-47
2022/01/17 10:04:24;;;;;;;24.17;20.33;;;;;;;3.77;100.00;102194.94;5031370;28;20226;-46
2022/01/17 10:06:53;;;;;;;25.23;20.67;;;;;;;3.77;100.00;102171.91;5030432;28;20211;-47
2022/01/17 10:09:24;;;;;;;23.87;20.83;;;;;;;3.75;100.00;102166.72;5030345;28;20554;-47
2022/01/17 10:12:05;;;;;;;24.40;20.00;;;;;;;3.73;100.00;102170.88;5019062;28;20246;-47
2022/01/17 10:14:38;;;;;;;21.83;18.67;;;;;;;3.77;100.00;102172.78;5017712;28;20179;-47
2022/01/17 10:17:11;;;;;;;21.00;17.83;;;;;;;3.82;100.00;102175.59;5029937;28;20262;-46
2022/01/17 10:19:37;;;;;;;21.40;17.97;;;;;;;3.88;100.00;102186.09;5029064;28;20756;-46
2022/01/17 10:22:10;;;;;;;21.97;18.23;;;;;;;3.95;100.00;102197.53;5021512;28;20238;-46
2022/01/17 10:24:45;;;;;;;22.40;18.10;;;;;;;3.98;100.00;102169.50;5012682;28;20698;-46
2022/01/17 10:35:10;;;;;;;21.37;18.43;;;;;;;3.91;100.00;102186.25;5019552;28;20187;-46
2022/01/17 10:37:35;;;;;;;19.63;17.13;;;;;;;3.89;100.00;102182.75;5024947;28;20261;-46
2022/01/17 10:40:02;;;;;;;19.57;16.17;;;;;;;3.91;100.00;102180.28;5021887;28;20267;-46
2022/01/17 10:42:35;;;;;;;21.77;18.50;;;;;;;3.90;100.00;102188.75;5023897;28;20241;-46
2022/01/17 10:45:06;;;;;;;21.13;17.47;;;;;;;3.88;100.00;102182.69;5028372;28;20218;-48
2022/01/17 10:47:35;;;;;;;20.07;17.27;;;;;;;3.87;100.00;102194.59;5020957;28;20212;-47
2022/01/17 10:50:05;;;;;;;18.87;15.60;;;;;;;3.88;100.00;102205.72;5019191;28;20725;-47
2022/01/17 10:52:35;;;;;;;20.17;17.10;;;;;;;3.88;100.00;102205.72;5015204;28;20196;-47
2022/01/17 10:55:14;;;;;;;17.10;14.57;;;;;;;3.89;100.00;102220.31;5021508;28;20920;-47
2022/01/17 10:57:42;;;;;;;19.70;17.43;;;;;;;3.88;100.00;102224.53;5018228;28;20190;-46
2022/01/17 11:00:16;;;;;;;18.57;16.23;;;;;;;3.93;100.00;102233.34;5018251;28;20688;-46
2022/01/17 11:02:48;;;;;;;20.80;16.40;;;;;;;3.98;100.00;102236.13;5022150;28;20199;-46
2022/01/17 11:05:14;;;;;;;19.30;15.53;;;;;;;4.05;100.00;102229.63;5014948;28;20194;-46
2022/01/17 11:08:01;;;;;;;24.87;20.93;;;;;;;4.11;100.00;102228.22;5024119;28;20751;-46
2022/01/17 11:10:34;;;;;;;23.03;17.90;;;;;;;4.16;100.00;102231.00;5022865;28;20192;-47
2022/01/17 11:13:02;;;;;;;20.90;17.63;;;;;;;4.25;100.00;102230.56;5024738;28;20195;-46
2022/01/17 11:15:32;;;;;;;20.97;17.17;;;;;;;4.37;100.00;102220.94;5026788;28;20725;-46
2022/01/17 11:18:01;;;;;;;17.67;15.80;;;;;;;4.50;100.00;102224.09;5023061;28;20208;-46
2022/01/17 11:20:28;;;;;;;18.57;16.23;;;;;;;4.58;100.00;102221.06;5027993;28;20202;-46
2022/01/17 11:22:56;;;;;;;21.63;18.00;;;;;;;4.65;100.00;102229.03;5020404;28;20192;-46
2022/01/17 11:25:43;;;;;;;21.27;18.67;;;;;;;4.69;100.00;102236.94;5022973;28;20298;-46
2022/01/17 11:28:09;;;;;;;20.50;16.97;;;;;;;4.73;100.00;102236.28;5019034;28;20316;-46
2022/01/17 11:30:37;;;;;;;21.13;16.27;;;;;;;4.79;100.00;102237.38;5018114;28;20642;-46